RPVD

Sibulan Airport

Dumaguete City, Philippines
TAF RPVD 241100Z 2412/2512 22006KT 9999 FEW015 SCT220 TEMPO 2412/2418 34004KT FEW014CB SCT015 BKN220
Issued Valid From Valid To
Sep-24 @ 11:00 UTC
(3 hours ago)
Sep-24 @ 12:00 UTC
(2 hours ago)
Sep-25 @ 12:00 UTC
(in 22 hours)
Sep-24 @ 12:00 to Sep-25 @ 12:00
TAF RPVD 241100Z 2412/2512 22006KT 9999 FEW015 SCT220
Wind Visibility Clouds
220° at 6 knots 10,000+ meters
  • Few at 1,500' AGL
  • Scattered at 22,000' AGL
Temporary Sep-24 @ 12:00 to Sep-24 @ 18:00
TEMPO 2412/2418 34004KT FEW014CB SCT015 BKN220
Wind Clouds
340° at 4 knots
  • Few at 1,400' AGL
  • Scattered at 1,500' AGL
  • Broken at 22,000' AGL
TAF RPVD 241100Z 2412/2512 22006KT 9999 FEW015 SCT220 TEMPO 2412/2418 34004KT FEW014CB SCT015 BKN220
Issued Sep-24 @ 11:00 UTC
(3 hours ago)
Valid From Sep-24 @ 12:00 UTC
(2 hours ago)
Valid To Sep-25 @ 12:00 UTC
(in 22 hours)
Sep-24 @ 12:00 - Sep-25 @ 12:00
Wind Visibility
220° at 6 knots 10,000+ meters
Clouds
  • Few at 1,500' AGL
  • Scattered at 22,000' AGL
Temporary Sep-24 @ 12:00 - Sep-24 @ 18:00
Wind
340° at 4 knots
Clouds
  • Few at 1,400' AGL
  • Scattered at 1,500' AGL
  • Broken at 22,000' AGL